Time;durP1;ratioP1;P1;durP2;ratioP2;P2;SDS_P1;SDS_P2;PMS_P1;PMS_P2;Temp;Humidity;BMP_temperature;BMP_pressure;BME280_temperature;BME280_humidity;BME280_pressure;Samples;Min_cycle;Max_cycle;Signal;HPM_P1;HPM_P2
2022/02/06 00:01:33;;;;;;;5.22;1.40;;;;;;;18.58;45.02;101180.75;5012271;28;20044;-69
2022/02/06 00:03:59;;;;;;;6.10;1.77;;;;;;;18.56;44.66;101173.88;5013108;28;20533;-69
2022/02/06 00:06:24;;;;;;;5.50;1.77;;;;;;;18.54;44.80;101163.44;5013087;28;20042;-69
2022/02/06 00:08:49;;;;;;;5.53;1.60;;;;;;;18.53;44.97;101158.28;5012745;28;20502;-69
2022/02/06 00:11:14;;;;;;;8.48;1.98;;;;;;;18.50;44.53;101154.09;5012928;28;20482;-69
2022/02/06 00:13:40;;;;;;;6.60;1.95;;;;;;;18.49;44.49;101163.81;5012929;28;20018;-69
2022/02/06 00:16:05;;;;;;;5.93;2.00;;;;;;;18.48;44.97;101158.66;5012518;28;20030;-69
2022/02/06 00:18:33;;;;;;;6.20;2.10;;;;;;;18.46;44.82;101128.91;5012512;28;20651;-68
2022/02/06 00:21:04;;;;;;;5.97;2.00;;;;;;;18.44;44.81;101133.47;5012238;28;20030;-69
2022/02/06 00:23:31;;;;;;;6.75;1.70;;;;;;;18.42;44.73;101148.56;5012902;28;20029;-69
2022/02/06 00:26:05;;;;;;;5.15;1.88;;;;;;;18.40;44.76;101117.00;5013108;28;20041;-68
2022/02/06 00:31:14;;;;;;;5.93;1.80;;;;;;;18.38;44.75;101102.28;5012860;28;20021;-69
2022/02/06 00:33:52;;;;;;;6.05;1.80;;;;;;;18.35;44.76;101121.00;5012953;28;20041;-68
2022/02/06 00:39:05;;;;;;;5.93;1.65;;;;;;;18.30;44.60;101087.03;5012920;28;20164;-68
2022/02/06 00:41:32;;;;;;;5.22;1.60;;;;;;;18.29;44.81;101098.53;5012543;28;20126;-68
2022/02/06 00:44:02;;;;;;;5.82;1.90;;;;;;;18.29;44.76;101088.00;5011818;28;20115;-68
2022/02/06 00:46:28;;;;;;;5.07;1.77;;;;;;;18.26;45.11;101082.94;5012417;28;20088;-68
2022/02/06 00:48:57;;;;;;;;;;;;;;;18.25;44.86;101076.03;5013083;28;20022;-68
2022/02/06 00:51:32;;;;;;;5.57;1.88;;;;;;;18.22;45.22;101069.16;5012404;28;19920;-68
2022/02/06 00:53:57;;;;;;;7.15;1.92;;;;;;;18.22;45.34;101066.53;5012824;28;20034;-68
2022/02/06 00:56:22;;;;;;;5.53;1.60;;;;;;;18.21;45.29;101064.84;5015273;28;20045;-68
2022/02/06 00:58:48;;;;;;;5.88;1.83;;;;;;;18.21;45.33;101061.38;5016857;28;20000;-67
2022/02/06 01:01:13;;;;;;;7.00;1.77;;;;;;;18.18;44.99;101054.53;5016460;28;20040;-67
2022/02/06 01:03:41;;;;;;;7.95;2.08;;;;;;;18.18;45.00;101062.44;5016086;28;20930;-68
2022/02/06 01:06:06;;;;;;;6.47;1.90;;;;;;;18.17;45.16;101047.59;5016491;28;20072;-68
2022/02/06 01:08:31;;;;;;;5.60;1.60;;;;;;;18.15;44.87;101051.31;5016639;28;20026;-68
2022/02/06 01:10:57;;;;;;;7.10;1.52;;;;;;;18.14;45.24;101055.75;5016428;28;19917;-68
2022/02/06 01:13:31;;;;;;;6.28;1.73;;;;;;;18.13;45.38;101052.28;5016210;28;20058;-68
2022/02/06 01:16:02;;;;;;;;;;;;;;;18.09;45.43;101052.63;5017147;28;20080;-68
2022/02/06 01:18:38;;;;;;;7.53;1.80;;;;;;;18.10;45.27;101039.31;5015110;28;20278;-68
2022/02/06 01:21:19;;;;;;;7.00;2.20;;;;;;;18.08;45.51;101035.94;5016447;28;20466;-68
2022/02/06 01:26:29;;;;;;;5.63;1.70;;;;;;;18.07;45.13;101050.13;5015387;28;20062;-68
2022/02/06 01:29:06;;;;;;;6.72;1.58;;;;;;;18.04;45.75;101034.53;5016086;28;20433;-68
2022/02/06 01:31:48;;;;;;;6.55;1.73;;;;;;;18.02;45.46;101028.50;5015033;28;20034;-68
2022/02/06 01:34:17;;;;;;;4.85;1.70;;;;;;;18.01;45.66;101024.22;5015991;28;20033;-68
2022/02/06 01:36:47;;;;;;;6.85;1.80;;;;;;;18.01;45.52;101036.53;5016058;28;20026;-68
2022/02/06 01:41:42;;;;;;;4.85;1.42;;;;;;;17.97;45.97;101030.69;5015971;28;20038;-68
2022/02/06 01:44:18;;;;;;;4.60;1.52;;;;;;;17.97;45.98;101019.28;5015351;28;20050;-68
2022/02/06 02:00:40;;;;;;;7.45;1.90;;;;;;;17.91;46.13;100992.47;5015399;28;20068;-68
2022/02/06 02:03:12;;;;;;;5.53;1.65;;;;;;;17.89;46.11;100983.81;5015815;28;20117;-68
2022/02/06 02:05:59;;;;;;;5.30;1.48;;;;;;;17.89;46.22;100975.06;5015295;28;20028;-68
2022/02/06 02:14:06;;;;;;;;;;;;;;;17.83;46.00;100965.81;5015302;28;20128;-68
2022/02/06 02:19:48;;;;;;;6.00;1.58;;;;;;;17.83;46.19;100967.59;5014796;28;20060;-68
2022/02/06 02:27:52;;;;;;;4.20;1.40;;;;;;;17.84;47.02;100966.66;5014328;28;20173;-68
2022/02/06 02:46:11;;;;;;;7.82;1.85;;;;;;;17.94;46.51;100928.06;5014982;28;20531;-68
2022/02/06 02:48:38;;;;;;;;;;;;;;;17.94;46.43;100921.03;5014247;28;20476;-68
2022/02/06 02:51:07;;;;;;;;;;;;;;;17.95;46.57;100913.94;5015296;28;19918;-68
2022/02/06 02:53:38;;;;;;;;;;;;;;;17.95;46.20;100906.84;5015283;28;20393;-68
2022/02/06 02:56:24;;;;;;;;;;;;;;;17.95;46.34;100912.13;5014344;28;19924;-68
2022/02/06 02:59:12;;;;;;;;;;;;;;;17.95;46.05;100891.03;5014870;28;19917;-68
2022/02/06 03:01:47;;;;;;;;;;;;;;;17.96;46.48;100897.16;5015041;28;19913;-68
2022/02/06 03:04:15;;;;;;;;;;;;;;;17.94;46.17;100885.88;5013881;28;19917;-68
2022/02/06 03:06:40;;;;;;;;;;;;;;;17.94;46.49;100889.38;5014541;28;20258;-67
2022/02/06 03:09:06;;;;;;;;;;;;;;;17.95;46.19;100887.56;5014729;28;19924;-68
2022/02/06 03:11:31;;;;;;;;;;;;;;;17.95;46.26;100879.66;5013663;28;19967;-67
2022/02/06 03:14:05;;;;;;;;;;;;;;;17.94;46.32;100878.84;5014927;28;20007;-67
2022/02/06 03:16:37;;;;;;;;;;;;;;;17.93;46.28;100860.50;5014343;28;19917;-67
2022/02/06 03:19:12;;;;;;;;;;;;;;;17.94;46.23;100870.06;5013859;28;19913;-67
2022/02/06 03:21:39;;;;;;;;;;;;;;;17.94;46.21;100864.78;5014471;28;19930;-68
2022/02/06 03:26:42;;;;;;;;;;;;;;;17.95;46.79;100861.19;5019277;28;19941;-67
2022/02/06 03:29:07;;;;;;;;;;;;;;;17.97;46.98;100856.63;5014149;28;19975;-67
2022/02/06 03:31:33;;;;;;;;;;;;;;;17.99;46.87;100849.47;5013732;28;19917;-67
2022/02/06 03:33:58;;;;;;;;;;;;;;;17.99;47.16;100862.66;5014243;28;19939;-68
2022/02/06 03:36:23;;;;;;;6.20;1.53;;;;;;;18.00;46.67;100850.28;5013362;28;20358;-68
2022/02/06 03:38:52;;;;;;;5.60;1.60;;;;;;;18.00;46.54;100840.56;5012816;28;20037;-68
2022/02/06 03:41:19;;;;;;;6.90;1.58;;;;;;;18.00;46.03;100837.09;5013272;28;20643;-68
2022/02/06 03:51:22;;;;;;;4.88;1.45;;;;;;;17.99;46.55;100836.28;5013149;28;20026;-68
2022/02/06 03:53:51;;;;;;;5.45;1.67;;;;;;;17.98;46.62;100816.13;5012768;28;20041;-68
2022/02/06 03:56:18;;;;;;;5.50;1.50;;;;;;;17.98;46.52;100825.84;5013335;28;20030;-68
2022/02/06 03:58:43;;;;;;;4.78;1.48;;;;;;;17.97;46.13;100817.09;5013463;28;20021;-67
2022/02/06 04:01:09;;;;;;;6.03;2.05;;;;;;;17.97;46.08;100808.34;5012615;28;20038;-67
2022/02/06 04:03:34;;;;;;;5.03;1.77;;;;;;;17.96;45.99;100810.16;5013195;28;20025;-68
2022/02/06 04:05:59;;;;;;;4.72;1.50;;;;;;;17.95;46.04;100808.47;5012534;28;20064;-68
2022/02/06 04:08:27;;;;;;;7.15;1.67;;;;;;;17.95;46.44;100808.47;5013094;28;20054;-68
2022/02/06 04:10:53;;;;;;;6.22;1.60;;;;;;;17.94;46.19;100796.25;5013129;28;20069;-68
2022/02/06 04:13:24;;;;;;;6.28;1.70;;;;;;;17.94;46.23;100789.19;5012234;28;20030;-68
2022/02/06 04:16:04;;;;;;;5.15;1.35;;;;;;;17.92;46.61;100793.72;5013172;28;20022;-68
2022/02/06 04:18:40;;;;;;;5.88;1.75;;;;;;;17.95;46.65;100792.66;5012588;28;20482;-68
2022/02/06 04:21:06;;;;;;;7.20;1.52;;;;;;;17.96;46.84;100807.53;5012445;28;20083;-67
2022/02/06 04:23:31;;;;;;;5.65;1.65;;;;;;;17.96;46.79;100791.69;5012942;28;20418;-67
2022/02/06 04:25:57;;;;;;;6.05;1.63;;;;;;;17.96;46.92;100778.50;5012990;28;20049;-67
2022/02/06 04:28:22;;;;;;;7.78;1.52;;;;;;;17.97;46.90;100780.16;5011750;28;20057;-68
2022/02/06 04:30:47;;;;;;;7.85;1.75;;;;;;;17.97;46.79;100764.34;5012355;28;20065;-68
2022/02/06 04:33:12;;;;;;;5.53;1.50;;;;;;;17.97;46.89;100759.06;5012549;28;20113;-68
2022/02/06 04:35:39;;;;;;;6.57;1.52;;;;;;;17.98;46.66;100765.22;5012158;28;20299;-68
2022/02/06 04:38:26;;;;;;;4.75;1.55;;;;;;;17.97;46.58;100751.16;5013209;28;20022;-68
2022/02/06 04:44:00;;;;;;;4.57;1.40;;;;;;;17.97;46.94;100731.88;5012259;28;20378;-69
2022/02/06 04:49:29;;;;;;;5.45;1.38;;;;;;;17.96;46.64;100733.69;5012833;28;20030;-67
2022/02/06 05:13:45;;;;;;;4.35;1.30;;;;;;;17.97;47.30;100671.22;5013216;28;20397;-68
2022/02/06 05:16:17;;;;;;;5.03;1.38;;;;;;;17.98;47.60;100668.47;5012694;28;20083;-67
2022/02/06 05:29:06;;;;;;;5.47;1.48;;;;;;;17.99;47.45;100648.22;5012374;28;20042;-68
2022/02/06 05:31:43;;;;;;;6.40;1.40;;;;;;;17.98;47.21;100650.00;5011449;28;20049;-68
2022/02/06 05:34:08;;;;;;;5.93;2.40;;;;;;;17.96;47.08;100628.22;5012245;28;20112;-67
2022/02/06 05:36:34;;;;;;;6.23;1.47;;;;;;;17.97;47.10;100634.31;5012619;28;20065;-67
2022/02/06 05:38:59;;;;;;;3.50;1.05;;;;;;;17.97;46.95;100629.06;5011477;28;20279;-68
2022/02/06 05:41:24;;;;;;;6.07;1.40;;;;;;;17.97;47.30;100635.16;5013688;28;20530;-67
2022/02/06 05:43:50;;;;;;;4.75;1.35;;;;;;;17.98;47.47;100636.00;5015760;28;20342;-67
2022/02/06 05:46:16;;;;;;;6.30;1.15;;;;;;;17.98;47.66;100634.19;5015077;28;20034;-68
2022/02/06 05:48:41;;;;;;;5.43;1.42;;;;;;;18.00;47.38;100605.06;5015557;28;20024;-68
2022/02/06 05:51:07;;;;;;;4.17;1.10;;;;;;;17.99;47.62;100613.94;5015404;28;20022;-68
2022/02/06 05:53:32;;;;;;;3.40;0.95;;;;;;;18.01;47.61;100609.34;5014991;28;20275;-68
2022/02/06 05:56:00;;;;;;;4.20;1.20;;;;;;;18.03;47.35;100620.63;5015636;28;20021;-69
2022/02/06 05:58:26;;;;;;;3.95;1.05;;;;;;;18.02;47.55;100625.03;5015103;28;20049;-69
2022/02/06 06:00:51;;;;;;;5.68;1.20;;;;;;;18.03;47.25;100618.00;5015682;28;20034;-69
2022/02/06 06:03:16;;;;;;;4.50;1.17;;;;;;;18.02;47.43;100614.50;5015359;28;20022;-69
2022/02/06 06:05:41;;;;;;;4.43;1.40;;;;;;;18.05;48.19;100621.31;5014770;28;20022;-69
2022/02/06 06:08:07;;;;;;;6.07;1.40;;;;;;;18.06;48.16;100620.38;5015386;28;20421;-69
2022/02/06 06:10:38;;;;;;;4.20;1.17;;;;;;;18.07;48.42;100604.41;5015143;28;20386;-69
2022/02/06 06:13:06;;;;;;;5.75;1.20;;;;;;;18.11;48.36;100589.16;5015003;28;20042;-69
2022/02/06 06:15:31;;;;;;;5.45;1.20;;;;;;;18.12;48.26;100599.59;5015084;28;20026;-69
2022/02/06 06:18:02;;;;;;;4.70;1.33;;;;;;;18.13;48.40;100590.72;5015228;28;20033;-68
2022/02/06 06:20:29;;;;;;;5.63;1.20;;;;;;;18.17;48.58;100609.75;5014154;28;20030;-69
2022/02/06 06:22:55;;;;;;;5.38;1.15;;;;;;;18.19;48.89;100602.53;5015254;28;20029;-68
2022/02/06 06:25:20;;;;;;;4.80;1.02;;;;;;;18.21;48.61;100584.75;5014758;28;20124;-68
2022/02/06 06:27:45;;;;;;;5.38;1.27;;;;;;;18.24;48.79;100567.84;5014532;28;20100;-68
2022/02/06 06:30:11;;;;;;;5.65;1.20;;;;;;;18.24;48.55;100581.84;5014725;28;20485;-68
2022/02/06 06:32:36;;;;;;;8.63;1.40;;;;;;;18.26;48.80;100566.75;5014898;28;20076;-69
2022/02/06 06:35:03;;;;;;;3.90;1.38;;;;;;;18.29;48.66;100569.13;5014313;28;20488;-69
2022/02/06 06:37:29;;;;;;;5.28;1.25;;;;;;;18.31;48.72;100566.38;5014474;28;20034;-69
2022/02/06 06:39:55;;;;;;;4.07;1.00;;;;;;;18.30;48.27;100560.22;5014823;28;20496;-69
2022/02/06 06:42:20;;;;;;;3.95;1.10;;;;;;;18.33;48.20;100567.06;5013956;28;20029;-69
2022/02/06 06:44:46;;;;;;;5.38;1.15;;;;;;;18.34;48.38;100557.34;5014621;28;20060;-69
2022/02/06 06:47:11;;;;;;;6.18;1.13;;;;;;;18.35;48.87;100559.00;5014475;28;20022;-68
2022/02/06 06:49:37;;;;;;;4.55;1.27;;;;;;;18.36;48.98;100543.06;5013928;28;20080;-68
2022/02/06 06:52:04;;;;;;;5.35;1.00;;;;;;;18.38;48.90;100543.75;5014466;28;20493;-69
2022/02/06 06:54:42;;;;;;;4.55;1.10;;;;;;;18.40;49.00;100533.06;5013982;28;20042;-68
2022/02/06 07:04:50;;;;;;;6.10;1.33;;;;;;;18.45;49.57;100523.78;5014506;28;20026;-67
2022/02/06 07:07:17;;;;;;;4.57;1.20;;;;;;;18.46;49.06;100524.59;5013867;28;20077;-67
2022/02/06 07:09:42;;;;;;;5.05;1.35;;;;;;;18.47;49.01;100521.00;5013464;28;20051;-68
2022/02/06 07:12:10;;;;;;;4.70;1.10;;;;;;;18.47;49.14;100519.19;5013990;28;20026;-67
2022/02/06 07:14:36;;;;;;;5.05;1.10;;;;;;;18.48;49.13;100507.69;5014239;28;20484;-68
2022/02/06 07:17:02;;;;;;;5.82;1.30;;;;;;;18.49;49.05;100500.59;5013590;28;20018;-68
2022/02/06 07:19:27;;;;;;;3.35;0.98;;;;;;;18.49;48.99;100503.22;5013962;28;20044;-68
2022/02/06 07:21:52;;;;;;;5.27;1.23;;;;;;;18.50;48.96;100497.00;5017115;28;20029;-69
2022/02/06 07:24:21;;;;;;;3.75;1.00;;;;;;;18.51;48.49;100479.34;5016837;28;20291;-66
2022/02/06 07:26:51;;;;;;;4.50;1.10;;;;;;;18.51;48.63;100477.53;5015446;28;20113;-68
2022/02/06 07:29:20;;;;;;;7.75;1.10;;;;;;;18.56;48.71;100466.56;5015168;28;20032;-68
2022/02/06 07:31:46;;;;;;;5.45;1.45;;;;;;;18.58;48.61;100472.53;5015604;28;20045;-68
2022/02/06 07:34:14;;;;;;;4.80;1.10;;;;;;;18.61;48.69;100464.34;5013568;28;20478;-69
2022/02/06 07:36:42;;;;;;;6.20;1.05;;;;;;;18.63;48.48;100447.41;5013906;28;20034;-67
2022/02/06 07:39:07;;;;;;;5.05;1.20;;;;;;;18.66;48.67;100438.41;5012449;28;20486;-68
2022/02/06 07:41:42;;;;;;;4.47;1.03;;;;;;;18.70;48.72;100439.78;5013584;28;20033;-67
2022/02/06 07:44:07;;;;;;;6.32;1.30;;;;;;;18.72;48.31;100437.00;5012248;28;20290;-67
2022/02/06 07:46:42;;;;;;;4.60;1.15;;;;;;;18.75;48.87;100418.25;5013433;28;20026;-68
2022/02/06 07:49:08;;;;;;;4.78;1.05;;;;;;;18.77;48.42;100418.94;5013466;28;20028;-68
2022/02/06 07:51:35;;;;;;;6.53;1.23;;;;;;;18.77;48.35;100414.50;5012645;28;20026;-69
2022/02/06 07:54:01;;;;;;;4.38;0.90;;;;;;;18.79;48.46;100409.91;5013414;28;20030;-68
2022/02/06 07:56:26;;;;;;;4.55;1.17;;;;;;;18.79;48.94;100396.72;5013059;28;20034;-67
2022/02/06 07:58:51;;;;;;;5.77;1.27;;;;;;;18.80;48.91;100395.75;5012501;28;20108;-68
2022/02/06 08:01:19;;;;;;;5.10;1.30;;;;;;;18.81;48.65;100394.75;5012739;28;20287;-69
2022/02/06 08:03:47;;;;;;;4.00;1.02;;;;;;;18.83;48.91;100384.06;5012707;28;20283;-72
2022/02/06 08:06:13;;;;;;;4.95;1.13;;;;;;;18.82;48.85;100385.88;5011948;28;20030;-70
2022/02/06 08:08:38;;;;;;;4.78;1.20;;;;;;;18.85;48.83;100371.59;5013960;28;20037;-70
2022/02/06 08:11:04;;;;;;;4.32;1.10;;;;;;;18.88;48.68;100381.03;5013325;28;20029;-68
2022/02/06 08:13:51;;;;;;;3.35;1.00;;;;;;;18.85;47.97;100361.88;5012016;28;20022;-66
2022/02/06 08:16:17;;;;;;;4.20;1.00;;;;;;;18.88;48.69;100367.81;5012839;28;20490;-70
2022/02/06 08:18:42;;;;;;;7.47;1.48;;;;;;;18.88;48.88;100367.81;5012944;28;20033;-69
2022/02/06 08:21:08;;;;;;;5.05;1.10;;;;;;;18.89;49.28;100351.03;5012278;28;20064;-72
2022/02/06 08:23:33;;;;;;;5.15;1.52;;;;;;;18.88;49.04;100346.72;5012744;28;20026;-70
2022/02/06 08:25:59;;;;;;;3.67;1.05;;;;;;;18.90;49.21;100353.53;5012788;28;20064;-70
2022/02/06 08:28:24;;;;;;;5.97;1.33;;;;;;;18.91;49.29;100334.03;5011822;28;20079;-69
2022/02/06 08:30:50;;;;;;;3.60;0.83;;;;;;;18.91;48.85;100326.13;5012813;28;20076;-68
2022/02/06 08:33:15;;;;;;;4.05;1.00;;;;;;;18.92;48.86;100311.97;5011791;28;20276;-68
2022/02/06 08:35:41;;;;;;;5.23;0.90;;;;;;;18.92;48.80;100325.16;5012964;28;20478;-67
2022/02/06 08:38:06;;;;;;;5.78;1.00;;;;;;;18.93;49.00;100302.22;5012750;28;20470;-67
2022/02/06 08:40:32;;;;;;;7.10;1.20;;;;;;;18.94;49.14;100295.97;5011757;28;20394;-67
2022/02/06 08:42:57;;;;;;;4.20;1.00;;;;;;;18.95;49.15;100305.56;5012842;28;20450;-67
2022/02/06 08:45:25;;;;;;;6.95;1.23;;;;;;;18.94;49.25;100283.59;5012278;28;20458;-68
2022/02/06 08:47:51;;;;;;;7.05;1.05;;;;;;;18.97;49.30;100275.38;5012129;28;20030;-68
2022/02/06 08:50:16;;;;;;;4.38;1.25;;;;;;;19.03;49.08;100272.16;5012454;28;20029;-69
2022/02/06 08:52:42;;;;;;;6.07;1.15;;;;;;;19.13;49.22;100266.84;5012659;28;20113;-67
2022/02/06 08:55:12;;;;;;;4.97;1.00;;;;;;;19.14;49.59;100257.97;5011418;28;20022;-66
2022/02/06 08:57:43;;;;;;;8.20;1.08;;;;;;;19.12;49.34;100252.00;5012697;28;20117;-68
2022/02/06 09:00:09;;;;;;;5.68;1.30;;;;;;;19.10;48.55;100238.09;5012362;28;20045;-70
2022/02/06 09:02:35;;;;;;;4.95;1.20;;;;;;;19.08;49.08;100241.88;5011884;28;20095;-69
2022/02/06 09:05:02;;;;;;;8.98;1.30;;;;;;;19.07;48.91;100238.38;5012210;28;20068;-73
2022/02/06 09:07:30;;;;;;;6.25;1.33;;;;;;;19.05;49.35;100226.31;5012354;28;20050;-69
2022/02/06 09:10:00;;;;;;;4.47;0.90;;;;;;;19.03;49.43;100215.91;5011593;28;20125;-64
2022/02/06 09:12:27;;;;;;;6.43;1.33;;;;;;;19.03;49.54;100218.53;5012270;28;20030;-65
2022/02/06 09:14:55;;;;;;;7.40;1.40;;;;;;;19.01;49.90;100196.72;5012611;28;20025;-64
2022/02/06 09:17:21;;;;;;;6.10;1.40;;;;;;;19.01;49.64;100205.47;5015097;28;20520;-67
2022/02/06 09:19:47;;;;;;;7.22;1.45;;;;;;;19.02;49.47;100193.09;5016229;28;20065;-68
2022/02/06 09:22:14;;;;;;;5.72;1.27;;;;;;;19.02;49.74;100185.16;5015926;28;20105;-66
2022/02/06 09:24:41;;;;;;;6.88;1.73;;;;;;;19.03;49.63;100186.84;5015545;28;20038;-65
2022/02/06 09:27:08;;;;;;;8.20;2.42;;;;;;;19.03;49.89;100169.19;5016117;28;20057;-65
2022/02/06 09:29:34;;;;;;;6.13;1.42;;;;;;;19.05;49.90;100173.50;5015622;28;20021;-64
2022/02/06 09:37:04;;;;;;;6.30;1.55;;;;;;;19.05;50.21;100142.63;5015488;28;20042;-65
2022/02/06 09:39:37;;;;;;;4.18;1.65;;;;;;;19.05;50.13;100134.72;5015830;28;20050;-65
2022/02/06 09:42:02;;;;;;;4.88;1.10;;;;;;;19.05;49.83;100126.78;5015843;28;20481;-64
2022/02/06 09:44:28;;;;;;;5.55;1.08;;;;;;;18.99;50.08;100117.66;5014930;28;20088;-65
2022/02/06 09:46:54;;;;;;;5.53;1.17;;;;;;;19.03;49.99;100124.28;5015955;28;20386;-65
2022/02/06 09:49:22;;;;;;;5.60;1.27;;;;;;;19.03;49.91;100115.53;5016102;28;20060;-64
2022/02/06 09:51:48;;;;;;;5.00;1.50;;;;;;;19.07;49.85;100111.63;5015651;28;20037;-67
2022/02/06 09:54:18;;;;;;;4.30;1.20;;;;;;;19.15;49.79;100111.72;5015741;28;20433;-63
2022/02/06 09:56:48;;;;;;;7.93;1.25;;;;;;;19.16;49.74;100096.69;5015530;28;20038;-64
2022/02/06 09:59:35;;;;;;;7.57;1.70;;;;;;;19.15;49.85;100082.66;5014560;28;20029;-64
2022/02/06 10:02:01;;;;;;;6.25;1.67;;;;;;;19.14;49.59;100077.53;5015451;28;20022;-63
2022/02/06 10:04:29;;;;;;;5.15;1.13;;;;;;;19.12;50.25;100063.63;5015222;28;20531;-63
2022/02/06 10:07:03;;;;;;;6.07;1.27;;;;;;;19.11;49.75;100054.88;5014676;28;20462;-64
2022/02/06 10:09:38;;;;;;;5.38;1.50;;;;;;;19.08;50.09;100043.78;5015126;28;20056;-64
2022/02/06 10:12:11;;;;;;;5.93;1.63;;;;;;;19.09;50.01;100037.50;5015145;28;20042;-64
2022/02/06 10:14:37;;;;;;;6.72;1.15;;;;;;;19.07;50.09;100032.38;5015526;28;20022;-63
2022/02/06 10:17:02;;;;;;;5.10;1.20;;;;;;;19.06;50.26;100027.25;5015604;28;20067;-64
2022/02/06 10:19:28;;;;;;;5.32;1.00;;;;;;;19.06;50.28;100025.47;5014236;28;20038;-64
2022/02/06 10:21:55;;;;;;;6.13;1.30;;;;;;;19.06;50.14;100033.38;5015200;28;20018;-64
2022/02/06 10:24:34;;;;;;;5.40;1.10;;;;;;;19.05;50.13;100030.91;5014767;28;20065;-63
2022/02/06 10:29:50;;;;;;;4.68;1.05;;;;;;;19.02;49.97;100011.72;5015392;28;20030;-64
2022/02/06 10:32:17;;;;;;;8.23;1.63;;;;;;;19.02;50.25;99992.41;5014891;28;20056;-64
2022/02/06 10:34:44;;;;;;;6.80;1.33;;;;;;;19.01;49.96;99993.41;5014202;28;20474;-64
2022/02/06 10:37:11;;;;;;;4.45;1.10;;;;;;;19.01;50.22;99985.47;5014795;28;20036;-64
2022/02/06 10:39:39;;;;;;;5.50;1.02;;;;;;;18.99;50.17;99984.78;5014739;28;20045;-64
2022/02/06 10:42:20;;;;;;;4.45;0.90;;;;;;;18.99;50.55;99961.03;5014147;28;20430;-64
2022/02/06 10:44:45;;;;;;;4.80;1.20;;;;;;;18.99;49.95;99974.22;5014762;28;20053;-65
2022/02/06 10:47:13;;;;;;;5.07;1.13;;;;;;;19.00;49.62;99965.31;5013855;28;20034;-66
2022/02/06 10:49:41;;;;;;;5.28;0.98;;;;;;;18.99;49.54;99948.66;5014787;28;20068;-67
2022/02/06 10:52:07;;;;;;;6.43;1.30;;;;;;;19.01;49.77;99932.66;5014705;28;20022;-67
2022/02/06 10:54:35;;;;;;;3.33;0.90;;;;;;;19.01;49.60;99937.94;5014020;28;20029;-66
2022/02/06 10:57:14;;;;;;;5.90;1.00;;;;;;;19.00;49.79;99913.34;5014705;28;20096;-66
2022/02/06 10:59:42;;;;;;;3.80;0.90;;;;;;;19.00;50.13;99907.25;5014464;28;20042;-66
2022/02/06 11:02:17;;;;;;;5.10;1.10;;;;;;;19.01;49.98;99903.63;5013340;28;20044;-66
2022/02/06 11:04:54;;;;;;;7.18;1.40;;;;;;;19.01;50.05;99900.97;5014641;28;20033;-66
2022/02/06 11:07:20;;;;;;;4.80;0.98;;;;;;;19.00;49.99;99883.47;5014103;28;20025;-67
2022/02/06 11:09:46;;;;;;;6.13;1.17;;;;;;;19.01;49.94;99879.84;5013831;28;20026;-67
2022/02/06 11:12:19;;;;;;;5.88;1.13;;;;;;;19.01;49.91;99879.84;5014333;28;20045;-66
2022/02/06 11:15:00;;;;;;;5.40;1.05;;;;;;;18.99;49.86;99874.72;5014076;28;20022;-66
2022/02/06 11:17:27;;;;;;;6.18;0.93;;;;;;;18.99;50.10;99860.69;5013796;28;20533;-66
2022/02/06 11:20:08;;;;;;;2.72;0.88;;;;;;;18.99;50.01;99843.03;5014320;28;20026;-65
2022/02/06 11:22:35;;;;;;;5.25;1.00;;;;;;;18.98;50.26;99837.91;5014102;28;20462;-67
2022/02/06 11:25:05;;;;;;;3.08;0.93;;;;;;;19.05;50.06;99833.66;5015386;28;20029;-70
2022/02/06 11:27:31;;;;;;;4.15;1.00;;;;;;;19.17;50.06;99842.16;5014455;28;20041;-65
2022/02/06 11:30:00;;;;;;;6.03;1.33;;;;;;;19.21;49.69;99809.97;5013769;28;20029;-65
2022/02/06 11:32:27;;;;;;;6.43;1.40;;;;;;;19.34;49.28;99812.22;5015082;28;20029;-71
2022/02/06 11:34:53;;;;;;;6.35;0.90;;;;;;;19.42;49.27;99808.75;5015189;28;20057;-64
2022/02/06 11:46:21;;;;;;;4.18;0.88;;;;;;;19.23;49.41;99809.00;5014672;28;20146;-63
2022/02/06 11:48:47;;;;;;;3.60;0.90;;;;;;;19.20;49.42;99804.84;5013913;28;20040;-64
2022/02/06 11:51:20;;;;;;;5.97;1.02;;;;;;;19.18;49.65;99801.56;5012706;28;20033;-62
2022/02/06 11:53:46;;;;;;;4.95;1.20;;;;;;;19.16;49.52;99809.63;5013774;28;20117;-63
2022/02/06 11:56:22;;;;;;;6.53;1.30;;;;;;;19.14;49.71;99816.88;5013272;28;20033;-63
2022/02/06 11:58:49;;;;;;;4.53;1.00;;;;;;;19.12;49.94;99845.28;5012593;28;20052;-64
2022/02/06 12:01:14;;;;;;;6.10;1.00;;;;;;;19.12;49.61;99900.75;5013229;28;20076;-63
2022/02/06 12:04:01;;;;;;;4.65;1.05;;;;;;;19.11;49.40;99933.41;5013252;28;20042;-62
2022/02/06 12:06:47;;;;;;;3.30;1.00;;;;;;;19.09;49.08;99939.81;5012333;28;20026;-65
2022/02/06 12:09:23;;;;;;;4.40;1.27;;;;;;;19.07;48.95;99954.97;5013262;28;20429;-62
2022/02/06 12:12:03;;;;;;;5.68;1.38;;;;;;;19.06;50.09;99956.81;5012486;28;20362;-67
2022/02/06 12:14:37;;;;;;;6.05;1.80;;;;;;;19.04;50.21;99974.59;5012892;28;20060;-67
2022/02/06 12:17:14;;;;;;;5.55;1.48;;;;;;;19.06;50.36;99979.72;5013441;28;20025;-66
2022/02/06 12:19:40;;;;;;;6.50;1.55;;;;;;;19.03;50.29;99979.06;5012271;28;20053;-66
2022/02/06 12:22:26;;;;;;;5.67;1.90;;;;;;;19.03;49.88;99984.34;5013106;28;20068;-66
2022/02/06 12:25:12;;;;;;;5.13;1.50;;;;;;;19.03;50.23;99994.06;5013264;28;20271;-67
2022/02/06 12:27:40;;;;;;;7.72;1.50;;;;;;;19.03;50.83;99992.25;5012254;28;20026;-66
2022/02/06 12:30:18;;;;;;;7.28;1.48;;;;;;;19.02;50.93;100002.97;5012876;28;20030;-67
2022/02/06 12:32:44;;;;;;;7.07;1.50;;;;;;;19.02;50.57;100001.16;5012112;28;20536;-67
2022/02/06 12:37:56;;;;;;;6.30;1.17;;;;;;;19.03;50.12;99967.66;5013063;28;20124;-66
2022/02/06 12:40:24;;;;;;;5.63;1.35;;;;;;;19.10;50.54;99942.28;5011993;28;20477;-65
2022/02/06 12:42:58;;;;;;;6.68;1.10;;;;;;;19.19;50.00;99973.06;5013314;28;20026;-70
2022/02/06 12:45:25;;;;;;;5.22;1.30;;;;;;;19.31;49.96;100004.53;5014428;28;20053;-65
2022/02/06 12:47:54;;;;;;;4.95;1.10;;;;;;;19.36;49.16;99997.00;5012179;28;20022;-65
2022/02/06 12:50:29;;;;;;;4.93;1.13;;;;;;;19.33;49.05;100000.78;5011906;28;20046;-65
2022/02/06 12:52:55;;;;;;;6.20;1.60;;;;;;;19.31;49.29;99981.59;5012683;28;20493;-69
2022/02/06 12:55:25;;;;;;;6.15;1.30;;;;;;;19.27;48.85;99960.94;5011780;28;20049;-67
2022/02/06 12:57:58;;;;;;;6.25;1.40;;;;;;;19.25;49.33;99989.28;5013123;28;20397;-67
2022/02/06 13:00:35;;;;;;;5.72;1.63;;;;;;;19.21;49.61;100016.00;5012228;28;20045;-67
2022/02/06 13:03:36;;;;;;;6.55;1.23;;;;;;;19.19;49.84;100022.44;5012655;28;20033;-68
2022/02/06 13:06:07;;;;;;;10.02;1.40;;;;;;;19.18;49.90;100015.50;5012811;28;20042;-67
2022/02/06 13:08:38;;;;;;;5.80;1.30;;;;;;;19.16;49.99;100015.63;5011851;28;20028;-67
2022/02/06 13:11:09;;;;;;;6.28;1.40;;;;;;;19.15;49.68;100021.91;5012688;28;20064;-67
2022/02/06 13:13:44;;;;;;;5.47;0.98;;;;;;;19.14;49.00;100022.06;5013042;28;20026;-67
2022/02/06 13:16:39;;;;;;;6.60;1.85;;;;;;;19.16;49.41;100012.19;5011733;28;20044;-64
2022/02/06 13:22:08;;;;;;;6.28;1.23;;;;;;;19.15;49.76;100015.78;5011885;28;20046;-69
2022/02/06 13:24:54;;;;;;;5.68;1.10;;;;;;;19.13;49.62;100015.94;5012612;28;20030;-64
2022/02/06 13:32:31;;;;;;;6.85;1.27;;;;;;;19.09;49.59;100006.69;5012031;28;20030;-64
2022/02/06 13:35:19;;;;;;;5.97;1.23;;;;;;;19.15;48.89;100016.63;5012776;28;20145;-66
2022/02/06 13:37:48;;;;;;;5.47;1.30;;;;;;;19.24;48.80;100017.53;5014530;28;20038;-66
2022/02/06 13:40:18;;;;;;;5.75;1.00;;;;;;;19.32;48.27;100016.78;5015830;28;20057;-66
2022/02/06 13:43:06;;;;;;;5.30;1.20;;;;;;;19.40;48.15;100015.00;5014453;28;20109;-67
2022/02/06 13:45:38;;;;;;;4.63;0.90;;;;;;;19.48;48.20;100018.72;5012482;28;20165;-68
2022/02/06 13:48:06;;;;;;;7.03;1.08;;;;;;;19.50;47.93;100016.75;5012370;28;20030;-64
2022/02/06 13:50:32;;;;;;;15.23;1.67;;;;;;;19.52;48.03;100023.53;5011347;28;20054;-63
2022/02/06 13:53:13;;;;;;;6.07;1.08;;;;;;;19.56;47.63;100024.88;5012397;28;20088;-62
2022/02/06 13:55:49;;;;;;;5.50;1.15;;;;;;;19.58;47.33;100033.50;5015169;28;20048;-65
2022/02/06 13:58:22;;;;;;;6.82;1.10;;;;;;;19.60;47.67;100033.34;5013587;28;20034;-64
2022/02/06 14:00:58;;;;;;;6.38;1.13;;;;;;;19.62;47.64;100047.22;5014044;28;20048;-64